sensor_id;sensor_type;location;lat;lon;timestamp;pressure;altitude;pressure_sealevel;temperature;humidity
5284;BME280;15377;48.540;9.268;2023-07-31T00:01:51;97516.03;;;12.54;100.00
5284;BME280;15377;48.540;9.268;2023-07-31T00:04:16;97513.84;;;12.58;100.00
5284;BME280;15377;48.540;9.268;2023-07-31T00:06:42;97528.31;;;12.53;100.00
5284;BME280;15377;48.540;9.268;2023-07-31T00:09:07;97512.97;;;12.32;100.00
5284;BME280;15377;48.540;9.268;2023-07-31T00:11:32;97498.72;;;12.19;100.00
5284;BME280;15377;48.540;9.268;2023-07-31T00:13:58;97520.00;;;12.33;100.00
5284;BME280;15377;48.540;9.268;2023-07-31T00:16:23;97519.16;;;12.27;100.00
5284;BME280;15377;48.540;9.268;2023-07-31T00:18:49;97509.19;;;12.15;100.00
5284;BME280;15377;48.540;9.268;2023-07-31T00:21:14;97498.97;;;12.35;100.00
5284;BME280;15377;48.540;9.268;2023-07-31T00:23:39;97507.75;;;12.54;100.00
5284;BME280;15377;48.540;9.268;2023-07-31T00:26:05;97491.03;;;12.43;100.00
5284;BME280;15377;48.540;9.268;2023-07-31T00:28:30;97520.03;;;12.53;100.00
5284;BME280;15377;48.540;9.268;2023-07-31T00:30:55;97513.91;;;12.43;100.00
5284;BME280;15377;48.540;9.268;2023-07-31T00:33:21;97538.81;;;12.34;100.00
5284;BME280;15377;48.540;9.268;2023-07-31T00:35:48;97525.28;;;12.51;100.00
5284;BME280;15377;48.540;9.268;2023-07-31T00:38:13;97508.66;;;12.31;100.00
5284;BME280;15377;48.540;9.268;2023-07-31T00:40:39;97520.59;;;12.22;100.00
5284;BME280;15377;48.540;9.268;2023-07-31T00:43:04;97525.94;;;12.11;100.00
5284;BME280;15377;48.540;9.268;2023-07-31T00:45:31;97534.13;;;12.20;100.00
5284;BME280;15377;48.540;9.268;2023-07-31T00:47:57;97524.97;;;12.29;100.00
5284;BME280;15377;48.540;9.268;2023-07-31T00:50:24;97527.84;;;12.20;100.00
5284;BME280;15377;48.540;9.268;2023-07-31T00:52:50;97521.34;;;12.23;100.00
5284;BME280;15377;48.540;9.268;2023-07-31T00:55:16;97506.00;;;12.02;100.00
5284;BME280;15377;48.540;9.268;2023-07-31T00:57:42;97518.13;;;12.24;100.00
5284;BME280;15377;48.540;9.268;2023-07-31T01:00:08;97518.91;;;12.25;100.00
5284;BME280;15377;48.540;9.268;2023-07-31T01:02:34;97496.75;;;12.19;100.00
5284;BME280;15377;48.540;9.268;2023-07-31T01:05:01;97489.72;;;12.04;100.00
5284;BME280;15377;48.540;9.268;2023-07-31T01:07:35;97512.47;;;11.99;100.00
5284;BME280;15377;48.540;9.268;2023-07-31T01:10:20;97509.34;;;11.91;100.00
5284;BME280;15377;48.540;9.268;2023-07-31T01:12:47;97501.44;;;11.99;100.00
5284;BME280;15377;48.540;9.268;2023-07-31T01:15:13;97489.06;;;12.09;100.00
5284;BME280;15377;48.540;9.268;2023-07-31T01:17:42;97487.31;;;12.26;100.00
5284;BME280;15377;48.540;9.268;2023-07-31T01:20:21;97493.59;;;12.12;100.00
5284;BME280;15377;48.540;9.268;2023-07-31T01:28:14;97478.81;;;12.49;100.00
5284;BME280;15377;48.540;9.268;2023-07-31T01:30:47;97475.50;;;12.65;100.00
5284;BME280;15377;48.540;9.268;2023-07-31T01:33:14;97481.41;;;12.73;100.00
5284;BME280;15377;48.540;9.268;2023-07-31T01:35:44;97480.78;;;12.43;100.00
5284;BME280;15377;48.540;9.268;2023-07-31T01:38:09;97482.66;;;12.17;100.00
5284;BME280;15377;48.540;9.268;2023-07-31T01:40:35;97464.38;;;12.00;100.00
5284;BME280;15377;48.540;9.268;2023-07-31T01:43:00;97466.28;;;12.28;100.00
5284;BME280;15377;48.540;9.268;2023-07-31T01:45:26;97456.94;;;12.46;100.00
5284;BME280;15377;48.540;9.268;2023-07-31T01:47:51;97470.88;;;12.37;100.00
5284;BME280;15377;48.540;9.268;2023-07-31T01:50:17;97467.81;;;12.15;100.00
5284;BME280;15377;48.540;9.268;2023-07-31T01:52:42;97464.44;;;12.25;100.00
5284;BME280;15377;48.540;9.268;2023-07-31T01:55:08;97452.81;;;12.36;100.00
5284;BME280;15377;48.540;9.268;2023-07-31T01:57:33;97463.25;;;12.46;100.00
5284;BME280;15377;48.540;9.268;2023-07-31T01:59:59;97456.41;;;12.42;100.00
5284;BME280;15377;48.540;9.268;2023-07-31T02:02:24;97465.88;;;12.55;100.00
5284;BME280;15377;48.540;9.268;2023-07-31T02:04:49;97472.59;;;12.74;100.00
5284;BME280;15377;48.540;9.268;2023-07-31T02:07:15;97462.69;;;12.62;100.00
5284;BME280;15377;48.540;9.268;2023-07-31T02:09:40;97464.97;;;12.44;100.00
5284;BME280;15377;48.540;9.268;2023-07-31T02:12:06;97465.63;;;12.19;100.00
5284;BME280;15377;48.540;9.268;2023-07-31T02:14:33;97466.34;;;12.34;100.00
5284;BME280;15377;48.540;9.268;2023-07-31T02:16:59;97470.34;;;12.33;100.00
5284;BME280;15377;48.540;9.268;2023-07-31T02:19:24;97459.84;;;12.17;100.00
5284;BME280;15377;48.540;9.268;2023-07-31T02:21:49;97438.13;;;11.90;100.00
5284;BME280;15377;48.540;9.268;2023-07-31T02:24:15;97427.59;;;11.88;100.00
5284;BME280;15377;48.540;9.268;2023-07-31T02:26:40;97423.41;;;12.13;100.00
5284;BME280;15377;48.540;9.268;2023-07-31T02:29:07;97408.78;;;12.07;100.00
5284;BME280;15377;48.540;9.268;2023-07-31T02:31:33;97429.13;;;12.09;100.00
5284;BME280;15377;48.540;9.268;2023-07-31T02:33:58;97425.06;;;12.05;100.00
5284;BME280;15377;48.540;9.268;2023-07-31T02:36:23;97424.91;;;11.94;100.00
5284;BME280;15377;48.540;9.268;2023-07-31T02:38:49;97425.38;;;11.92;100.00
5284;BME280;15377;48.540;9.268;2023-07-31T02:41:14;97420.31;;;11.71;100.00
5284;BME280;15377;48.540;9.268;2023-07-31T02:43:39;97414.00;;;11.85;100.00
5284;BME280;15377;48.540;9.268;2023-07-31T02:46:05;97397.53;;;11.90;100.00
5284;BME280;15377;48.540;9.268;2023-07-31T02:48:30;97407.50;;;11.88;100.00
5284;BME280;15377;48.540;9.268;2023-07-31T02:50:55;97407.63;;;11.79;100.00
5284;BME280;15377;48.540;9.268;2023-07-31T02:53:21;97397.13;;;11.63;100.00
5284;BME280;15377;48.540;9.268;2023-07-31T02:55:48;97417.22;;;11.83;100.00
5284;BME280;15377;48.540;9.268;2023-07-31T02:58:13;97415.94;;;11.99;100.00
5284;BME280;15377;48.540;9.268;2023-07-31T03:00:43;97417.03;;;12.07;100.00
5284;BME280;15377;48.540;9.268;2023-07-31T03:03:08;97416.44;;;12.17;100.00
5284;BME280;15377;48.540;9.268;2023-07-31T03:05:33;97408.09;;;11.92;100.00
5284;BME280;15377;48.540;9.268;2023-07-31T03:07:58;97424.38;;;11.75;100.00
5284;BME280;15377;48.540;9.268;2023-07-31T03:10:24;97419.19;;;11.97;100.00
5284;BME280;15377;48.540;9.268;2023-07-31T03:12:49;97420.38;;;12.11;100.00
5284;BME280;15377;48.540;9.268;2023-07-31T03:15:15;97423.69;;;12.15;100.00
5284;BME280;15377;48.540;9.268;2023-07-31T03:17:40;97409.47;;;12.22;100.00
5284;BME280;15377;48.540;9.268;2023-07-31T03:20:06;97415.00;;;12.22;100.00
5284;BME280;15377;48.540;9.268;2023-07-31T03:22:31;97401.47;;;12.04;100.00
5284;BME280;15377;48.540;9.268;2023-07-31T03:24:57;97419.66;;;11.96;100.00
5284;BME280;15377;48.540;9.268;2023-07-31T03:27:22;97413.47;;;12.01;100.00
5284;BME280;15377;48.540;9.268;2023-07-31T03:29:48;97386.16;;;12.03;100.00
5284;BME280;15377;48.540;9.268;2023-07-31T03:32:15;97422.03;;;12.23;100.00
5284;BME280;15377;48.540;9.268;2023-07-31T03:34:40;97403.06;;;12.10;100.00
5284;BME280;15377;48.540;9.268;2023-07-31T03:37:05;97419.97;;;12.18;100.00
5284;BME280;15377;48.540;9.268;2023-07-31T03:39:31;97413.53;;;12.06;100.00
5284;BME280;15377;48.540;9.268;2023-07-31T03:41:56;97410.53;;;11.90;100.00
5284;BME280;15377;48.540;9.268;2023-07-31T03:44:22;97421.69;;;11.81;100.00
5284;BME280;15377;48.540;9.268;2023-07-31T03:46:47;97413.38;;;11.61;100.00
5284;BME280;15377;48.540;9.268;2023-07-31T03:49:12;97423.19;;;11.62;100.00
5284;BME280;15377;48.540;9.268;2023-07-31T03:51:38;97429.13;;;11.75;100.00
5284;BME280;15377;48.540;9.268;2023-07-31T03:54:03;97433.38;;;11.90;100.00
5284;BME280;15377;48.540;9.268;2023-07-31T03:56:28;97424.97;;;11.99;100.00
5284;BME280;15377;48.540;9.268;2023-07-31T03:58:54;97435.16;;;12.28;100.00
5284;BME280;15377;48.540;9.268;2023-07-31T04:01:19;97410.88;;;12.32;100.00
5284;BME280;15377;48.540;9.268;2023-07-31T04:03:45;97424.59;;;12.46;100.00
5284;BME280;15377;48.540;9.268;2023-07-31T04:06:10;97428.25;;;12.58;100.00
5284;BME280;15377;48.540;9.268;2023-07-31T04:08:35;97423.47;;;12.58;100.00
5284;BME280;15377;48.540;9.268;2023-07-31T04:11:01;97428.38;;;12.69;100.00
5284;BME280;15377;48.540;9.268;2023-07-31T04:13:26;97423.16;;;12.71;100.00
5284;BME280;15377;48.540;9.268;2023-07-31T04:15:53;97440.34;;;12.86;100.00
5284;BME280;15377;48.540;9.268;2023-07-31T04:18:19;97446.06;;;12.97;100.00
5284;BME280;15377;48.540;9.268;2023-07-31T04:20:45;97434.28;;;13.02;100.00
5284;BME280;15377;48.540;9.268;2023-07-31T04:23:10;97425.56;;;13.09;100.00
5284;BME280;15377;48.540;9.268;2023-07-31T04:25:35;97433.72;;;13.18;100.00
5284;BME280;15377;48.540;9.268;2023-07-31T04:28:01;97421.63;;;13.15;100.00
5284;BME280;15377;48.540;9.268;2023-07-31T04:30:26;97423.66;;;13.20;100.00
5284;BME280;15377;48.540;9.268;2023-07-31T04:32:52;97415.16;;;13.24;100.00
5284;BME280;15377;48.540;9.268;2023-07-31T04:35:17;97428.06;;;13.32;100.00
5284;BME280;15377;48.540;9.268;2023-07-31T04:37:42;97419.28;;;13.34;100.00
5284;BME280;15377;48.540;9.268;2023-07-31T04:40:10;97421.75;;;13.32;100.00
5284;BME280;15377;48.540;9.268;2023-07-31T04:42:35;97421.25;;;13.28;100.00
5284;BME280;15377;48.540;9.268;2023-07-31T04:45:00;97399.88;;;13.28;100.00
5284;BME280;15377;48.540;9.268;2023-07-31T04:47:26;97425.91;;;13.42;100.00
5284;BME280;15377;48.540;9.268;2023-07-31T04:49:51;97420.88;;;13.46;100.00
5284;BME280;15377;48.540;9.268;2023-07-31T04:52:16;97424.75;;;13.59;100.00
5284;BME280;15377;48.540;9.268;2023-07-31T04:54:42;97433.56;;;13.58;100.00
5284;BME280;15377;48.540;9.268;2023-07-31T04:57:07;97411.34;;;13.47;100.00
5284;BME280;15377;48.540;9.268;2023-07-31T04:59:33;97427.75;;;13.56;100.00
5284;BME280;15377;48.540;9.268;2023-07-31T05:01:58;97413.25;;;13.66;100.00
5284;BME280;15377;48.540;9.268;2023-07-31T05:04:23;97431.25;;;13.87;100.00
5284;BME280;15377;48.540;9.268;2023-07-31T05:06:49;97423.94;;;13.84;100.00
5284;BME280;15377;48.540;9.268;2023-07-31T05:09:14;97418.50;;;13.95;100.00
5284;BME280;15377;48.540;9.268;2023-07-31T05:11:39;97422.53;;;14.00;100.00
5284;BME280;15377;48.540;9.268;2023-07-31T05:14:05;97431.69;;;14.11;100.00
5284;BME280;15377;48.540;9.268;2023-07-31T05:16:31;97443.13;;;14.24;100.00
5284;BME280;15377;48.540;9.268;2023-07-31T05:18:56;97440.38;;;14.30;100.00
5284;BME280;15377;48.540;9.268;2023-07-31T05:21:22;97442.38;;;14.35;100.00
5284;BME280;15377;48.540;9.268;2023-07-31T05:23:47;97438.41;;;14.41;100.00
5284;BME280;15377;48.540;9.268;2023-07-31T05:26:13;97447.25;;;14.51;100.00
5284;BME280;15377;48.540;9.268;2023-07-31T05:28:38;97435.19;;;14.48;100.00
5284;BME280;15377;48.540;9.268;2023-07-31T05:31:04;97443.53;;;14.65;100.00
5284;BME280;15377;48.540;9.268;2023-07-31T05:33:30;97445.09;;;14.71;100.00
5284;BME280;15377;48.540;9.268;2023-07-31T05:35:56;97450.19;;;14.83;100.00
5284;BME280;15377;48.540;9.268;2023-07-31T05:38:21;97436.31;;;14.83;100.00
5284;BME280;15377;48.540;9.268;2023-07-31T05:40:47;97449.25;;;15.08;100.00
5284;BME280;15377;48.540;9.268;2023-07-31T05:43:13;97433.38;;;15.14;100.00
5284;BME280;15377;48.540;9.268;2023-07-31T05:45:38;97447.03;;;15.34;100.00
5284;BME280;15377;48.540;9.268;2023-07-31T05:48:05;97438.47;;;15.43;100.00
5284;BME280;15377;48.540;9.268;2023-07-31T05:50:31;97457.16;;;15.65;100.00
5284;BME280;15377;48.540;9.268;2023-07-31T05:52:56;97449.34;;;15.69;100.00
5284;BME280;15377;48.540;9.268;2023-07-31T05:55:22;97443.28;;;15.65;100.00
5284;BME280;15377;48.540;9.268;2023-07-31T05:57:48;97456.13;;;15.84;100.00
5284;BME280;15377;48.540;9.268;2023-07-31T06:00:14;97450.34;;;15.82;100.00
5284;BME280;15377;48.540;9.268;2023-07-31T06:02:39;97458.91;;;15.84;100.00
5284;BME280;15377;48.540;9.268;2023-07-31T06:05:05;97458.41;;;16.08;100.00
5284;BME280;15377;48.540;9.268;2023-07-31T06:07:33;97449.56;;;16.09;100.00
5284;BME280;15377;48.540;9.268;2023-07-31T06:09:59;97450.78;;;16.30;100.00
5284;BME280;15377;48.540;9.268;2023-07-31T06:12:31;97453.06;;;16.48;100.00
5284;BME280;15377;48.540;9.268;2023-07-31T06:14:56;97452.94;;;16.70;100.00
5284;BME280;15377;48.540;9.268;2023-07-31T06:17:22;97448.59;;;16.86;100.00
5284;BME280;15377;48.540;9.268;2023-07-31T06:19:47;97434.69;;;16.91;100.00
5284;BME280;15377;48.540;9.268;2023-07-31T06:22:13;97422.53;;;16.94;100.00
5284;BME280;15377;48.540;9.268;2023-07-31T06:24:38;97447.13;;;17.25;100.00
5284;BME280;15377;48.540;9.268;2023-07-31T06:27:04;97450.13;;;17.33;100.00
5284;BME280;15377;48.540;9.268;2023-07-31T06:29:30;97449.06;;;17.36;100.00
5284;BME280;15377;48.540;9.268;2023-07-31T06:31:55;97446.56;;;17.38;100.00
5284;BME280;15377;48.540;9.268;2023-07-31T06:34:21;97458.22;;;17.36;100.00
5284;BME280;15377;48.540;9.268;2023-07-31T06:36:46;97440.53;;;17.28;100.00
5284;BME280;15377;48.540;9.268;2023-07-31T06:39:12;97452.66;;;17.36;100.00
5284;BME280;15377;48.540;9.268;2023-07-31T06:41:38;97451.34;;;17.43;100.00
5284;BME280;15377;48.540;9.268;2023-07-31T06:44:03;97446.34;;;17.65;100.00
5284;BME280;15377;48.540;9.268;2023-07-31T06:46:29;97450.44;;;17.94;100.00
5284;BME280;15377;48.540;9.268;2023-07-31T06:48:54;97451.13;;;18.29;100.00
5284;BME280;15377;48.540;9.268;2023-07-31T06:51:20;97450.56;;;18.78;100.00
5284;BME280;15377;48.540;9.268;2023-07-31T06:53:45;97457.56;;;19.09;100.00
5284;BME280;15377;48.540;9.268;2023-07-31T06:56:11;97436.53;;;19.26;100.00
5284;BME280;15377;48.540;9.268;2023-07-31T06:58:36;97449.19;;;19.46;100.00
5284;BME280;15377;48.540;9.268;2023-07-31T07:01:01;97456.78;;;19.64;100.00
5284;BME280;15377;48.540;9.268;2023-07-31T07:03:27;97453.75;;;19.62;100.00
5284;BME280;15377;48.540;9.268;2023-07-31T07:05:52;97454.91;;;19.85;100.00
5284;BME280;15377;48.540;9.268;2023-07-31T07:08:18;97459.25;;;19.99;100.00
5284;BME280;15377;48.540;9.268;2023-07-31T07:10:43;97464.28;;;20.19;100.00
5284;BME280;15377;48.540;9.268;2023-07-31T07:13:08;97460.16;;;20.07;100.00
5284;BME280;15377;48.540;9.268;2023-07-31T07:15:34;97463.44;;;20.24;100.00
5284;BME280;15377;48.540;9.268;2023-07-31T07:18:00;97463.00;;;20.20;100.00
5284;BME280;15377;48.540;9.268;2023-07-31T07:20:25;97460.84;;;20.13;100.00
5284;BME280;15377;48.540;9.268;2023-07-31T07:22:51;97457.53;;;20.14;100.00
5284;BME280;15377;48.540;9.268;2023-07-31T07:25:16;97466.25;;;20.37;100.00
5284;BME280;15377;48.540;9.268;2023-07-31T07:27:41;97463.44;;;20.24;100.00
5284;BME280;15377;48.540;9.268;2023-07-31T07:30:07;97465.38;;;20.29;100.00
5284;BME280;15377;48.540;9.268;2023-07-31T07:32:33;97450.56;;;20.34;100.00
5284;BME280;15377;48.540;9.268;2023-07-31T07:34:58;97443.56;;;20.40;100.00
5284;BME280;15377;48.540;9.268;2023-07-31T07:37:23;97457.56;;;20.53;100.00
5284;BME280;15377;48.540;9.268;2023-07-31T07:39:49;97443.13;;;20.36;100.00
5284;BME280;15377;48.540;9.268;2023-07-31T07:42:14;97448.22;;;20.51;100.00
5284;BME280;15377;48.540;9.268;2023-07-31T07:44:40;97447.03;;;20.72;100.00
5284;BME280;15377;48.540;9.268;2023-07-31T07:47:05;97428.28;;;20.67;100.00
5284;BME280;15377;48.540;9.268;2023-07-31T07:49:34;97436.28;;;20.63;100.00
5284;BME280;15377;48.540;9.268;2023-07-31T07:52:00;97439.59;;;20.49;100.00
5284;BME280;15377;48.540;9.268;2023-07-31T07:54:26;97429.81;;;20.42;100.00
5284;BME280;15377;48.540;9.268;2023-07-31T07:56:52;97430.78;;;20.58;100.00
5284;BME280;15377;48.540;9.268;2023-07-31T07:59:17;97432.06;;;20.70;100.00
5284;BME280;15377;48.540;9.268;2023-07-31T08:01:43;97426.91;;;20.61;100.00
5284;BME280;15377;48.540;9.268;2023-07-31T08:04:08;97436.56;;;20.73;100.00
5284;BME280;15377;48.540;9.268;2023-07-31T08:06:34;97434.00;;;20.88;100.00
5284;BME280;15377;48.540;9.268;2023-07-31T08:08:59;97453.16;;;20.84;100.00
5284;BME280;15377;48.540;9.268;2023-07-31T08:11:24;97439.81;;;20.64;100.00
5284;BME280;15377;48.540;9.268;2023-07-31T08:13:50;97430.34;;;20.67;100.00
5284;BME280;15377;48.540;9.268;2023-07-31T08:16:15;97439.47;;;20.80;100.00
5284;BME280;15377;48.540;9.268;2023-07-31T08:18:41;97426.91;;;20.74;100.00
5284;BME280;15377;48.540;9.268;2023-07-31T08:21:08;97420.88;;;20.70;100.00
5284;BME280;15377;48.540;9.268;2023-07-31T08:23:33;97426.47;;;20.70;100.00
5284;BME280;15377;48.540;9.268;2023-07-31T08:25:59;97428.97;;;20.86;100.00
5284;BME280;15377;48.540;9.268;2023-07-31T08:28:25;97416.88;;;20.91;100.00
5284;BME280;15377;48.540;9.268;2023-07-31T08:30:51;97408.16;;;20.95;100.00
5284;BME280;15377;48.540;9.268;2023-07-31T08:33:16;97396.31;;;21.02;100.00
5284;BME280;15377;48.540;9.268;2023-07-31T08:35:41;97400.78;;;21.18;100.00
5284;BME280;15377;48.540;9.268;2023-07-31T08:38:07;97383.38;;;21.12;100.00
5284;BME280;15377;48.540;9.268;2023-07-31T08:40:36;97393.28;;;21.13;100.00
5284;BME280;15377;48.540;9.268;2023-07-31T08:43:01;97397.75;;;21.29;100.00
5284;BME280;15377;48.540;9.268;2023-07-31T08:45:28;97401.47;;;21.65;100.00
5284;BME280;15377;48.540;9.268;2023-07-31T08:47:54;97411.63;;;21.68;100.00
5284;BME280;15377;48.540;9.268;2023-07-31T08:50:21;97409.97;;;21.52;100.00
5284;BME280;15377;48.540;9.268;2023-07-31T08:52:47;97409.31;;;21.46;100.00
5284;BME280;15377;48.540;9.268;2023-07-31T08:55:14;97397.16;;;21.77;100.00
5284;BME280;15377;48.540;9.268;2023-07-31T08:57:42;97395.66;;;22.24;100.00
5284;BME280;15377;48.540;9.268;2023-07-31T09:00:10;97383.84;;;22.46;100.00
5284;BME280;15377;48.540;9.268;2023-07-31T09:02:48;97401.22;;;22.45;99.73
5284;BME280;15377;48.540;9.268;2023-07-31T09:05:17;97391.75;;;22.55;99.51
5284;BME280;15377;48.540;9.268;2023-07-31T09:07:45;97391.38;;;22.51;98.19
5284;BME280;15377;48.540;9.268;2023-07-31T09:10:12;97408.31;;;22.74;100.00
5284;BME280;15377;48.540;9.268;2023-07-31T09:12:38;97399.03;;;22.86;98.09
5284;BME280;15377;48.540;9.268;2023-07-31T09:15:04;97387.72;;;22.64;97.16
5284;BME280;15377;48.540;9.268;2023-07-31T09:17:35;97390.53;;;22.71;99.96
5284;BME280;15377;48.540;9.268;2023-07-31T09:20:21;97391.22;;;22.99;97.88
5284;BME280;15377;48.540;9.268;2023-07-31T09:22:47;97391.31;;;23.14;95.76
5284;BME280;15377;48.540;9.268;2023-07-31T09:25:20;97391.22;;;22.99;94.02
5284;BME280;15377;48.540;9.268;2023-07-31T09:28:00;97384.09;;;22.91;95.16
5284;BME280;15377;48.540;9.268;2023-07-31T09:30:26;97389.66;;;22.84;95.71
5284;BME280;15377;48.540;9.268;2023-07-31T09:33:01;97379.22;;;22.92;96.45
5284;BME280;15377;48.540;9.268;2023-07-31T09:35:34;97391.16;;;22.85;94.26
5284;BME280;15377;48.540;9.268;2023-07-31T09:38:03;97378.66;;;22.86;95.98
5284;BME280;15377;48.540;9.268;2023-07-31T09:40:36;97375.06;;;23.20;94.80
5284;BME280;15377;48.540;9.268;2023-07-31T09:43:10;97375.59;;;23.19;97.69
5284;BME280;15377;48.540;9.268;2023-07-31T09:45:41;97380.91;;;23.37;92.22
5284;BME280;15377;48.540;9.268;2023-07-31T09:48:10;97382.16;;;23.21;91.31
5284;BME280;15377;48.540;9.268;2023-07-31T09:50:41;97330.91;;;23.28;93.44
5284;BME280;15377;48.540;9.268;2023-07-31T09:53:07;97369.31;;;23.63;91.41
5284;BME280;15377;48.540;9.268;2023-07-31T09:55:33;97354.69;;;23.50;88.08
5284;BME280;15377;48.540;9.268;2023-07-31T09:58:00;97348.34;;;23.49;93.35
5284;BME280;15377;48.540;9.268;2023-07-31T10:00:29;97342.72;;;23.49;91.73
5284;BME280;15377;48.540;9.268;2023-07-31T10:02:58;97345.00;;;23.73;92.11
5284;BME280;15377;48.540;9.268;2023-07-31T10:05:36;97326.06;;;24.04;91.54
5284;BME280;15377;48.540;9.268;2023-07-31T10:08:03;97319.50;;;24.01;90.36
5284;BME280;15377;48.540;9.268;2023-07-31T10:10:29;97326.44;;;24.00;87.22
5284;BME280;15377;48.540;9.268;2023-07-31T10:12:56;97321.75;;;24.18;88.28
5284;BME280;15377;48.540;9.268;2023-07-31T10:15:23;97302.25;;;24.27;85.20
5284;BME280;15377;48.540;9.268;2023-07-31T10:17:49;97301.41;;;24.49;82.88
5284;BME280;15377;48.540;9.268;2023-07-31T10:20:16;97302.91;;;25.61;83.45
5284;BME280;15377;48.540;9.268;2023-07-31T10:22:42;97310.19;;;26.81;76.24
5284;BME280;15377;48.540;9.268;2023-07-31T10:25:08;97297.97;;;27.75;68.71
5284;BME280;15377;48.540;9.268;2023-07-31T10:27:36;97293.88;;;28.23;70.53
5284;BME280;15377;48.540;9.268;2023-07-31T10:30:04;97286.34;;;28.73;64.04
5284;BME280;15377;48.540;9.268;2023-07-31T10:32:30;97287.34;;;28.97;62.28
5284;BME280;15377;48.540;9.268;2023-07-31T10:34:57;97280.34;;;29.57;61.96
5284;BME280;15377;48.540;9.268;2023-07-31T10:37:27;97271.31;;;29.70;52.16
5284;BME280;15377;48.540;9.268;2023-07-31T10:39:58;97269.41;;;29.93;56.51
5284;BME280;15377;48.540;9.268;2023-07-31T10:42:31;97275.19;;;30.47;52.79
5284;BME280;15377;48.540;9.268;2023-07-31T10:45:09;97270.78;;;30.76;49.77
5284;BME280;15377;48.540;9.268;2023-07-31T10:47:38;97285.31;;;31.59;49.68
5284;BME280;15377;48.540;9.268;2023-07-31T10:50:11;97257.69;;;32.18;48.20
5284;BME280;15377;48.540;9.268;2023-07-31T10:52:37;97258.25;;;32.51;43.08
5284;BME280;15377;48.540;9.268;2023-07-31T10:55:32;97264.19;;;32.55;44.93
5284;BME280;15377;48.540;9.268;2023-07-31T10:58:09;97253.13;;;32.25;43.95
5284;BME280;15377;48.540;9.268;2023-07-31T11:00:37;97250.84;;;31.87;45.37
5284;BME280;15377;48.540;9.268;2023-07-31T11:03:09;97261.00;;;31.12;45.90
5284;BME280;15377;48.540;9.268;2023-07-31T11:05:52;97233.31;;;29.84;50.21
5284;BME280;15377;48.540;9.268;2023-07-31T11:08:22;97252.34;;;29.32;49.12
5284;BME280;15377;48.540;9.268;2023-07-31T11:11:06;97251.09;;;30.69;48.42
5284;BME280;15377;48.540;9.268;2023-07-31T11:13:33;97259.25;;;32.44;47.80
5284;BME280;15377;48.540;9.268;2023-07-31T11:16:04;97253.94;;;32.39;40.42
5284;BME280;15377;48.540;9.268;2023-07-31T11:18:29;97231.34;;;32.18;40.50
5284;BME280;15377;48.540;9.268;2023-07-31T11:20:55;97234.09;;;31.93;42.65
5284;BME280;15377;48.540;9.268;2023-07-31T11:23:22;97236.47;;;32.81;45.16
5284;BME280;15377;48.540;9.268;2023-07-31T11:25:48;97214.91;;;34.22;42.59
5284;BME280;15377;48.540;9.268;2023-07-31T11:28:15;97222.88;;;34.24;36.75
5284;BME280;15377;48.540;9.268;2023-07-31T11:30:42;97228.31;;;33.52;39.65
5284;BME280;15377;48.540;9.268;2023-07-31T11:33:10;97236.50;;;32.33;40.46
5284;BME280;15377;48.540;9.268;2023-07-31T11:35:46;97236.28;;;32.17;43.38
5284;BME280;15377;48.540;9.268;2023-07-31T11:40:47;97234.88;;;30.39;46.96
5284;BME280;15377;48.540;9.268;2023-07-31T11:43:13;97233.06;;;29.40;50.31
5284;BME280;15377;48.540;9.268;2023-07-31T11:45:45;97226.44;;;28.48;49.32
5284;BME280;15377;48.540;9.268;2023-07-31T11:48:18;97220.59;;;28.18;52.98
5284;BME280;15377;48.540;9.268;2023-07-31T11:50:44;97224.63;;;28.62;55.52
5284;BME280;15377;48.540;9.268;2023-07-31T11:53:11;97222.56;;;28.34;52.11
5284;BME280;15377;48.540;9.268;2023-07-31T11:55:38;97217.94;;;27.65;53.23
5284;BME280;15377;48.540;9.268;2023-07-31T11:58:04;97207.78;;;27.07;55.20
5284;BME280;15377;48.540;9.268;2023-07-31T12:00:30;97218.91;;;26.79;57.46
5284;BME280;15377;48.540;9.268;2023-07-31T12:02:56;97219.84;;;26.81;62.89
5284;BME280;15377;48.540;9.268;2023-07-31T12:05:22;97217.81;;;26.91;57.58
5284;BME280;15377;48.540;9.268;2023-07-31T12:07:53;97201.63;;;27.01;58.60
5284;BME280;15377;48.540;9.268;2023-07-31T12:10:30;97210.72;;;26.73;60.20
5284;BME280;15377;48.540;9.268;2023-07-31T12:13:03;97191.06;;;26.49;63.84
5284;BME280;15377;48.540;9.268;2023-07-31T12:15:33;97199.31;;;26.37;64.61
5284;BME280;15377;48.540;9.268;2023-07-31T12:17:58;97189.28;;;25.93;68.52
5284;BME280;15377;48.540;9.268;2023-07-31T12:20:24;97188.56;;;25.51;71.11
5284;BME280;15377;48.540;9.268;2023-07-31T12:22:49;97174.19;;;25.22;75.29
5284;BME280;15377;48.540;9.268;2023-07-31T12:25:18;97186.84;;;24.82;76.40
5284;BME280;15377;48.540;9.268;2023-07-31T12:27:46;97186.84;;;24.82;80.24
5284;BME280;15377;48.540;9.268;2023-07-31T12:30:33;97180.63;;;24.51;78.14
5284;BME280;15377;48.540;9.268;2023-07-31T12:33:12;97171.13;;;24.71;82.72
5284;BME280;15377;48.540;9.268;2023-07-31T12:35:41;97143.38;;;24.68;78.73
5284;BME280;15377;48.540;9.268;2023-07-31T12:38:06;97178.94;;;24.80;78.14
5284;BME280;15377;48.540;9.268;2023-07-31T12:40:32;97177.53;;;24.72;77.73
5284;BME280;15377;48.540;9.268;2023-07-31T12:43:00;97158.47;;;24.55;78.93
5284;BME280;15377;48.540;9.268;2023-07-31T12:45:27;97129.44;;;24.45;83.47
5284;BME280;15377;48.540;9.268;2023-07-31T12:47:52;97155.97;;;24.67;84.69
5284;BME280;15377;48.540;9.268;2023-07-31T12:50:17;97147.22;;;24.55;80.32
5284;BME280;15377;48.540;9.268;2023-07-31T12:52:43;97141.34;;;24.68;80.08
5284;BME280;15377;48.540;9.268;2023-07-31T12:55:08;97137.31;;;25.28;80.29
5284;BME280;15377;48.540;9.268;2023-07-31T12:57:34;97149.53;;;25.64;74.97
5284;BME280;15377;48.540;9.268;2023-07-31T12:59:59;97134.59;;;26.22;75.33
5284;BME280;15377;48.540;9.268;2023-07-31T13:02:24;97126.03;;;27.92;65.82
5284;BME280;15377;48.540;9.268;2023-07-31T13:04:50;97123.13;;;29.08;60.64
5284;BME280;15377;48.540;9.268;2023-07-31T13:07:16;97124.53;;;30.12;53.51
5284;BME280;15377;48.540;9.268;2023-07-31T13:09:41;97112.59;;;29.51;51.23